Ansley, Mississippi
Current Conditions -  °F | °C
As of 3:50 PM on Tuesday 25 Nov 2014 (Local Time) from KHSA Reporting Station
Overcast Overcast  
Wind Chill: 54°   Ceiling: 12000
Heat Index: 54°   Visibility: 10mi
Dew Point: 34°   Wind: 7mph
Humidity: 47%   Direction: 340°NNW
Pressure: 30.14"   Gusts: NA
Location:  30.2253°N, 89.4838°W
Report Text: KHSA 252150Z 34006KT 10SM OVC120 12/01 A3014
Loading
Personal Weather Stations






























Interactive Weather Map New forecast layout! Learn more

10-Day Weather Forecast

Advertisements
Track Severe Weather on mobile